createdAt,value
2017-08-09T00:00:45.463Z,0
2017-08-09T00:01:45.134Z,0
2017-08-09T00:02:45.491Z,0
2017-08-09T00:03:45.200Z,0
2017-08-09T00:04:45.143Z,0
2017-08-09T00:05:45.152Z,0
2017-08-09T00:06:44.470Z,0
2017-08-09T00:07:45.100Z,0
2017-08-09T00:08:45.369Z,0
2017-08-09T00:09:45.075Z,0
2017-08-09T00:10:45.375Z,0
2017-08-09T00:11:44.621Z,0
2017-08-09T00:12:45.294Z,0
2017-08-09T00:13:44.698Z,0
2017-08-09T00:14:44.992Z,0
2017-08-09T00:15:44.259Z,0
2017-08-09T00:16:45.233Z,0
2017-08-09T00:17:45.159Z,0
2017-08-09T00:18:44.623Z,0
2017-08-09T00:19:44.835Z,0
2017-08-09T00:20:44.570Z,0
2017-08-09T00:21:44.822Z,0
2017-08-09T00:22:44.450Z,0
2017-08-09T00:23:44.740Z,0
2017-08-09T00:24:44.444Z,0
2017-08-09T00:25:44.676Z,0
2017-08-09T00:26:45.001Z,0
2017-08-09T00:27:44.383Z,0
2017-08-09T00:28:44.326Z,0
2017-08-09T00:29:44.343Z,0
2017-08-09T00:30:44.622Z,0
2017-08-09T00:31:44.627Z,0
2017-08-09T00:32:44.903Z,0
2017-08-09T00:33:44.889Z,0
2017-08-09T00:34:45.086Z,0
2017-08-09T00:35:44.519Z,0
2017-08-09T00:36:44.856Z,0
2017-08-09T00:37:44.743Z,0
2017-08-09T00:38:44.173Z,0
2017-08-09T00:39:44.890Z,0
2017-08-09T00:40:44.844Z,0
2017-08-09T00:41:44.428Z,0
2017-08-09T00:42:43.781Z,0
2017-08-09T00:43:44.413Z,0
2017-08-09T00:44:44.384Z,0
2017-08-09T00:45:44.141Z,0
2017-08-09T00:46:43.732Z,0
2017-08-09T00:47:44.023Z,0
2017-08-09T00:48:44.618Z,0
2017-08-09T00:49:43.971Z,0
2017-08-09T00:50:43.973Z,0
2017-08-09T00:51:44.619Z,0
2017-08-09T00:52:44.600Z,0
2017-08-09T00:53:44.569Z,0
2017-08-09T00:54:43.899Z,0
2017-08-09T00:55:43.570Z,0
2017-08-09T00:56:43.611Z,0
2017-08-09T00:57:43.556Z,0
2017-08-09T00:58:44.479Z,0
2017-08-09T00:59:43.819Z,0
2017-08-09T01:00:44.102Z,0
2017-08-09T01:01:43.821Z,0
2017-08-09T01:02:44.428Z,0
2017-08-09T01:03:44.359Z,0
2017-08-09T01:04:44.356Z,0
2017-08-09T01:05:43.710Z,0
2017-08-09T01:06:43.992Z,0
2017-08-09T01:07:44.283Z,0
2017-08-09T01:08:43.968Z,0
2017-08-09T01:09:43.942Z,0
2017-08-09T01:10:44.245Z,0
2017-08-09T01:11:43.361Z,0
2017-08-09T01:12:44.241Z,0
2017-08-09T01:13:43.920Z,0
2017-08-09T01:14:44.167Z,0
2017-08-09T01:15:43.561Z,0
2017-08-09T01:16:43.527Z,0
2017-08-09T01:17:44.135Z,0
2017-08-09T01:18:43.800Z,0
2017-08-09T01:19:43.795Z,0
2017-08-09T01:20:44.262Z,0
2017-08-09T01:21:43.429Z,0
2017-08-09T01:22:44.023Z,0
2017-08-09T01:23:43.419Z,0
2017-08-09T01:24:43.408Z,0
2017-08-09T01:25:43.684Z,0
2017-08-09T01:26:43.071Z,0
2017-08-09T01:27:43.347Z,0
2017-08-09T01:28:43.332Z,0
2017-08-09T01:29:43.283Z,0
2017-08-09T01:30:43.606Z,0
2017-08-09T01:31:43.260Z,0
2017-08-09T01:32:43.862Z,0
2017-08-09T01:33:43.248Z,0
2017-08-09T01:34:43.550Z,0
2017-08-09T01:35:43.519Z,0
2017-08-09T01:36:43.205Z,0
2017-08-09T01:37:43.479Z,0
2017-08-09T01:38:43.470Z,0
2017-08-09T01:39:43.451Z,0
2017-08-09T01:40:43.511Z,0
2017-08-09T01:41:43.412Z,0
2017-08-09T01:42:43.418Z,0
2017-08-09T01:43:43.448Z,0
2017-08-09T01:44:43.667Z,0
2017-08-09T01:45:43.352Z,0
2017-08-09T01:46:43.313Z,0
2017-08-09T01:47:43.302Z,0
2017-08-09T01:48:43.588Z,0
2017-08-09T01:49:43.281Z,0
2017-08-09T01:50:43.250Z,0
2017-08-09T01:51:43.286Z,0
2017-08-09T01:52:43.234Z,0
2017-08-09T01:53:43.226Z,0
2017-08-09T01:54:43.013Z,0
2017-08-09T01:55:43.147Z,0
2017-08-09T01:56:42.906Z,0
2017-08-09T01:57:43.152Z,0
2017-08-09T01:58:43.419Z,0
2017-08-09T01:59:43.121Z,0
2017-08-09T02:00:43.397Z,0
2017-08-09T02:01:43.381Z,0
2017-08-09T02:02:43.352Z,0
2017-08-09T02:03:43.347Z,0
2017-08-09T02:04:43.042Z,0
2017-08-09T02:05:43.320Z,0
2017-08-09T02:06:43.295Z,0
2017-08-09T02:07:43.282Z,0
2017-08-09T02:08:43.266Z,0
2017-08-09T02:09:42.302Z,0
2017-08-09T02:10:42.961Z,0
2017-08-09T02:11:42.939Z,0
2017-08-09T02:12:43.201Z,0
2017-08-09T02:13:43.176Z,0
2017-08-09T02:14:43.160Z,0
2017-08-09T02:15:43.130Z,0
2017-08-09T02:16:42.837Z,0
2017-08-09T02:17:43.112Z,0
2017-08-09T02:18:43.096Z,0
2017-08-09T02:19:42.551Z,0
2017-08-09T02:20:43.061Z,0
2017-08-09T02:21:42.731Z,0
2017-08-09T02:22:42.711Z,0
2017-08-09T02:23:42.998Z,0
2017-08-09T02:24:42.741Z,0
2017-08-09T02:25:42.767Z,0
2017-08-09T02:26:42.648Z,0
2017-08-09T02:27:42.935Z,0
2017-08-09T02:28:42.311Z,0
2017-08-09T02:29:42.692Z,0
2017-08-09T02:30:42.301Z,0
2017-08-09T02:31:42.260Z,0
2017-08-09T02:32:42.251Z,0
2017-08-09T02:33:42.830Z,0
2017-08-09T02:34:42.522Z,0
2017-08-09T02:35:42.819Z,0
2017-08-09T02:36:42.784Z,0
2017-08-09T02:37:42.452Z,0
2017-08-09T02:38:42.741Z,0
2017-08-09T02:39:42.426Z,0
2017-08-09T02:40:41.798Z,0
2017-08-09T02:41:41.799Z,0
2017-08-09T02:42:42.375Z,0
2017-08-09T02:43:42.050Z,0
2017-08-09T02:44:42.637Z,0
2017-08-09T02:45:41.993Z,0
2017-08-09T02:46:41.721Z,0
2017-08-09T02:47:42.591Z,0
2017-08-09T02:48:42.277Z,0
2017-08-09T02:49:42.349Z,0
2017-08-09T02:50:42.242Z,0
2017-08-09T02:51:41.963Z,0
2017-08-09T02:52:41.903Z,0
2017-08-09T02:53:42.030Z,0
2017-08-09T02:54:42.222Z,0
2017-08-09T02:55:42.209Z,0
2017-08-09T02:56:42.159Z,0
2017-08-09T02:57:41.639Z,0
2017-08-09T02:58:42.149Z,0
2017-08-09T02:59:41.799Z,0
2017-08-09T03:00:42.500Z,0
2017-08-09T03:01:41.747Z,0
2017-08-09T03:02:41.420Z,0
2017-08-09T03:03:42.009Z,0
2017-08-09T03:04:42.010Z,0
2017-08-09T03:05:42.098Z,0
2017-08-09T03:06:42.279Z,0
2017-08-09T03:07:41.617Z,0
2017-08-09T03:08:41.938Z,0
2017-08-09T03:09:42.222Z,0
2017-08-09T03:10:42.030Z,0
2017-08-09T03:11:41.892Z,0
2017-08-09T03:12:41.668Z,0
2017-08-09T03:13:41.620Z,0
2017-08-09T03:14:41.814Z,0
2017-08-09T03:15:41.873Z,0
2017-08-09T03:16:41.490Z,0
2017-08-09T03:17:41.798Z,0
2017-08-09T03:18:42.068Z,0
2017-08-09T03:19:42.060Z,0
2017-08-09T03:20:42.098Z,0
2017-08-09T03:21:41.397Z,0
2017-08-09T03:22:41.697Z,0
2017-08-09T03:23:42.087Z,0
2017-08-09T03:24:41.679Z,0
2017-08-09T03:25:41.637Z,0
2017-08-09T03:26:41.309Z,0
2017-08-09T03:27:41.677Z,0
2017-08-09T03:28:41.294Z,0
2017-08-09T03:29:41.280Z,0
2017-08-09T03:30:40.967Z,0
2017-08-09T03:31:41.228Z,0
2017-08-09T03:32:41.218Z,0
2017-08-09T03:33:41.225Z,0
2017-08-09T03:34:41.788Z,0
2017-08-09T03:35:41.146Z,0
2017-08-09T03:36:41.448Z,0
2017-08-09T03:37:41.868Z,0
2017-08-09T03:38:41.757Z,0
2017-08-09T03:39:41.508Z,0
2017-08-09T03:40:41.377Z,0
2017-08-09T03:41:41.082Z,0
2017-08-09T03:42:41.038Z,0
2017-08-09T03:43:41.328Z,0
2017-08-09T03:44:41.009Z,0
2017-08-09T03:45:41.338Z,0
2017-08-09T03:46:41.065Z,0
2017-08-09T03:47:40.969Z,0
2017-08-09T03:48:41.367Z,0
2017-08-09T03:49:40.920Z,0
2017-08-09T03:50:41.257Z,0
2017-08-09T03:51:40.586Z,0
2017-08-09T03:52:41.197Z,0
2017-08-09T03:53:41.498Z,0
2017-08-09T03:54:40.868Z,0
2017-08-09T03:55:40.821Z,0
2017-08-09T03:56:41.260Z,0
2017-08-09T03:57:41.077Z,0
2017-08-09T03:58:41.089Z,0
2017-08-09T03:59:40.760Z,0
2017-08-09T04:00:40.738Z,0
2017-08-09T04:01:41.058Z,0
2017-08-09T04:02:41.000Z,0
2017-08-09T04:03:40.823Z,0
2017-08-09T04:04:40.981Z,0
2017-08-09T04:05:40.961Z,0
2017-08-09T04:06:40.941Z,0
2017-08-09T04:07:40.627Z,0
2017-08-09T04:08:40.900Z,0
2017-08-09T04:09:40.901Z,0
2017-08-09T04:10:40.894Z,0
2017-08-09T04:11:40.881Z,0
2017-08-09T04:12:40.840Z,0
2017-08-09T04:13:40.830Z,0
2017-08-09T04:14:41.192Z,0
2017-08-09T04:15:40.792Z,0
2017-08-09T04:16:40.774Z,0
2017-08-09T04:17:40.773Z,0
2017-08-09T04:18:41.040Z,0
2017-08-09T04:19:41.027Z,0
2017-08-09T04:20:40.770Z,5
2017-08-09T04:21:40.683Z,5
2017-08-09T04:22:40.961Z,5
2017-08-09T04:23:41.063Z,5
2017-08-09T04:24:40.310Z,5
2017-08-09T04:25:40.648Z,5
2017-08-09T04:26:40.920Z,5
2017-08-09T04:27:40.279Z,10
2017-08-09T04:28:40.879Z,10
2017-08-09T04:29:40.860Z,10
2017-08-09T04:30:40.540Z,10
2017-08-09T04:31:40.821Z,10
2017-08-09T04:32:40.511Z,10
2017-08-09T04:33:40.220Z,10
2017-08-09T04:34:40.769Z,10
2017-08-09T04:35:39.859Z,10
2017-08-09T04:36:40.131Z,10
2017-08-09T04:37:40.421Z,10
2017-08-09T04:38:40.384Z,10
2017-08-09T04:39:40.700Z,10
2017-08-09T04:40:40.041Z,10
2017-08-09T04:41:40.662Z,10
2017-08-09T04:42:40.342Z,10
2017-08-09T04:43:39.693Z,15
2017-08-09T04:44:40.302Z,15
2017-08-09T04:45:39.667Z,15
2017-08-09T04:46:40.262Z,15
2017-08-09T04:47:40.301Z,15
2017-08-09T04:48:40.228Z,15
2017-08-09T04:49:40.199Z,15
2017-08-09T04:50:40.192Z,15
2017-08-09T04:51:40.191Z,15
2017-08-09T04:52:40.460Z,15
2017-08-09T04:53:40.462Z,15
2017-08-09T04:54:40.135Z,15
2017-08-09T04:55:40.420Z,20
2017-08-09T04:56:39.783Z,20
2017-08-09T04:57:40.398Z,20
2017-08-09T04:58:40.345Z,25
2017-08-09T04:59:39.732Z,30
2017-08-09T05:00:40.333Z,30
2017-08-09T05:01:39.707Z,35
2017-08-09T05:02:39.673Z,40
2017-08-09T05:03:40.293Z,35
2017-08-09T05:04:40.267Z,40
2017-08-09T05:05:40.241Z,45
2017-08-09T05:06:39.954Z,45
2017-08-09T05:07:39.669Z,50
2017-08-09T05:08:39.863Z,50
2017-08-09T05:09:39.630Z,50
2017-08-09T05:10:40.179Z,50
2017-08-09T05:11:39.656Z,50
2017-08-09T05:12:39.921Z,50
2017-08-09T05:13:39.823Z,50
2017-08-09T05:14:39.794Z,45
2017-08-09T05:15:40.075Z,45
2017-08-09T05:16:40.075Z,40
2017-08-09T05:17:39.743Z,35
2017-08-09T05:18:39.703Z,30
2017-08-09T05:19:39.812Z,35
2017-08-09T05:20:39.669Z,35
2017-08-09T05:21:39.343Z,35
2017-08-09T05:22:39.659Z,25
2017-08-09T05:23:39.626Z,15
2017-08-09T05:24:39.129Z,15
2017-08-09T05:25:39.909Z,20
2017-08-09T05:26:38.979Z,25
2017-08-09T05:27:38.962Z,20
2017-08-09T05:28:39.861Z,15
2017-08-09T05:29:39.636Z,10
2017-08-09T05:30:39.540Z,10
2017-08-09T05:31:39.186Z,10
2017-08-09T05:32:39.204Z,10
2017-08-09T05:33:39.478Z,10
2017-08-09T05:34:39.219Z,10
2017-08-09T05:35:39.438Z,10
2017-08-09T05:36:39.414Z,5
2017-08-09T05:37:39.717Z,5
2017-08-09T05:38:39.189Z,5
2017-08-09T05:39:39.384Z,5
2017-08-09T05:40:39.447Z,5
2017-08-09T05:41:39.368Z,5
2017-08-09T05:42:39.022Z,5
2017-08-09T05:43:39.001Z,5
2017-08-09T05:44:39.591Z,5
2017-08-09T05:45:39.569Z,5
2017-08-09T05:46:39.258Z,5
2017-08-09T05:47:38.963Z,5
2017-08-09T05:48:39.222Z,5
2017-08-09T05:49:38.898Z,5
2017-08-09T05:50:39.487Z,0
2017-08-09T05:51:39.187Z,0
2017-08-09T05:52:38.874Z,0
2017-08-09T05:53:38.515Z,0
2017-08-09T05:54:38.824Z,0
2017-08-09T05:55:38.485Z,0
2017-08-09T05:56:39.187Z,0
2017-08-09T05:57:38.772Z,0
2017-08-09T05:58:39.362Z,0
2017-08-09T05:59:39.349Z,0
2017-08-09T06:00:38.703Z,5
2017-08-09T06:01:39.311Z,5
2017-08-09T06:02:39.313Z,5
2017-08-09T06:03:38.361Z,5
2017-08-09T06:04:38.953Z,5
2017-08-09T06:05:38.619Z,10
2017-08-09T06:06:39.031Z,10
2017-08-09T06:07:39.012Z,10
2017-08-09T06:08:38.712Z,5
2017-08-09T06:09:39.202Z,5
2017-08-09T06:10:38.899Z,10
2017-08-09T06:11:38.856Z,10
2017-08-09T06:12:38.621Z,10
2017-08-09T06:13:39.104Z,10
2017-08-09T06:14:38.785Z,15
2017-08-09T06:15:38.818Z,15
2017-08-09T06:16:38.763Z,10
2017-08-09T06:17:38.855Z,10
2017-08-09T06:18:38.440Z,10
2017-08-09T06:19:38.695Z,10
2017-08-09T06:20:38.701Z,10
2017-08-09T06:21:38.695Z,10
2017-08-09T06:22:38.347Z,15
2017-08-09T06:23:38.671Z,20
2017-08-09T06:24:38.687Z,30
2017-08-09T06:25:38.612Z,35
2017-08-09T06:26:38.621Z,40
2017-08-09T06:27:38.279Z,45
2017-08-09T06:28:38.954Z,50
2017-08-09T06:29:38.216Z,55
2017-08-09T06:30:38.523Z,50
2017-08-09T06:31:38.567Z,45
2017-08-09T06:32:38.830Z,50
2017-08-09T06:33:38.463Z,55
2017-08-09T06:34:38.596Z,55
2017-08-09T06:35:38.443Z,55
2017-08-09T06:36:38.947Z,55
2017-08-09T06:37:38.715Z,50
2017-08-09T06:38:38.193Z,45
2017-08-09T06:39:38.667Z,55
2017-08-09T06:40:38.772Z,55
2017-08-09T06:41:38.348Z,45
2017-08-09T06:42:38.363Z,35
2017-08-09T06:43:38.313Z,30
2017-08-09T06:44:38.602Z,25
2017-08-09T06:45:38.627Z,20
2017-08-09T06:46:38.692Z,20
2017-08-09T06:47:38.636Z,15
2017-08-09T06:48:38.589Z,15
2017-08-09T06:49:38.605Z,15
2017-08-09T06:50:38.604Z,15
2017-08-09T06:51:38.511Z,10
2017-08-09T06:52:38.464Z,10
2017-08-09T06:53:38.452Z,10
2017-08-09T06:54:38.505Z,10
2017-08-09T06:55:38.430Z,5
2017-08-09T06:56:38.416Z,5
2017-08-09T06:57:38.440Z,10
2017-08-09T06:58:38.397Z,10
2017-08-09T06:59:38.454Z,10
2017-08-09T07:00:38.099Z,10
2017-08-09T07:01:38.013Z,15
2017-08-09T07:02:38.027Z,15
2017-08-09T07:03:37.673Z,15
2017-08-09T07:04:38.018Z,20
2017-08-09T07:05:37.622Z,20
2017-08-09T07:06:37.930Z,20
2017-08-09T07:07:37.925Z,25
2017-08-09T07:08:37.903Z,25
2017-08-09T07:09:37.894Z,25
2017-08-09T07:10:37.933Z,30
2017-08-09T07:11:37.870Z,30
2017-08-09T07:12:37.842Z,35
2017-08-09T07:13:37.918Z,35
2017-08-09T07:14:37.811Z,40
2017-08-09T07:15:37.820Z,35
2017-08-09T07:16:37.816Z,40
2017-08-09T07:17:38.097Z,45
2017-08-09T07:18:38.052Z,50
2017-08-09T07:19:38.102Z,50
2017-08-09T07:20:38.003Z,55
2017-08-09T07:21:37.684Z,60
2017-08-09T07:22:37.344Z,60
2017-08-09T07:23:37.974Z,70
2017-08-09T07:24:37.976Z,70
2017-08-09T07:25:37.921Z,70
2017-08-09T07:26:37.929Z,65
2017-08-09T07:27:37.021Z,65
2017-08-09T07:28:37.913Z,70
2017-08-09T07:29:37.226Z,70
2017-08-09T07:30:37.532Z,70
2017-08-09T07:31:37.891Z,65
2017-08-09T07:32:37.504Z,60
2017-08-09T07:33:36.864Z,60
2017-08-09T07:34:37.493Z,60
2017-08-09T07:35:37.742Z,60
2017-08-09T07:36:37.821Z,60
2017-08-09T07:37:37.420Z,65
2017-08-09T07:38:37.092Z,65
2017-08-09T07:39:37.072Z,65
2017-08-09T07:40:37.385Z,65
2017-08-09T07:41:37.364Z,65
2017-08-09T07:42:37.706Z,70
2017-08-09T07:43:37.630Z,70
2017-08-09T07:44:37.010Z,70
2017-08-09T07:45:37.309Z,75
2017-08-09T07:46:37.327Z,85
2017-08-09T07:47:37.254Z,90
2017-08-09T07:48:37.562Z,95
2017-08-09T07:49:37.241Z,100
2017-08-09T07:50:36.903Z,105
2017-08-09T07:51:37.487Z,85
2017-08-09T07:52:37.504Z,85
2017-08-09T07:53:37.498Z,85
2017-08-09T07:54:37.467Z,90
2017-08-09T07:55:36.865Z,100
2017-08-09T07:56:37.105Z,105
2017-08-09T07:57:37.091Z,90
2017-08-09T07:58:37.385Z,100
2017-08-09T07:59:37.073Z,110
2017-08-09T08:00:37.376Z,130
2017-08-09T08:01:37.341Z,165
2017-08-09T08:02:37.002Z,160
2017-08-09T08:03:36.999Z,150
2017-08-09T08:04:36.671Z,140
2017-08-09T08:05:36.354Z,160
2017-08-09T08:06:36.643Z,190
2017-08-09T08:07:36.966Z,225
2017-08-09T08:08:36.624Z,200
2017-08-09T08:09:37.193Z,180
2017-08-09T08:10:36.583Z,180
2017-08-09T08:11:37.190Z,165
2017-08-09T08:12:36.892Z,145
2017-08-09T08:13:36.982Z,150
2017-08-09T08:14:37.164Z,155
2017-08-09T08:15:36.845Z,170
2017-08-09T08:16:36.512Z,175
2017-08-09T08:17:37.089Z,205
2017-08-09T08:18:37.115Z,190
2017-08-09T08:19:37.069Z,240
2017-08-09T08:20:37.050Z,220
2017-08-09T08:21:36.412Z,225
2017-08-09T08:22:37.017Z,190
2017-08-09T08:23:37.012Z,155
2017-08-09T08:24:36.102Z,165
2017-08-09T08:25:36.372Z,225
2017-08-09T08:26:36.992Z,240
2017-08-09T08:27:36.444Z,165
2017-08-09T08:28:36.322Z,175
2017-08-09T08:29:36.965Z,225
2017-08-09T08:30:36.314Z,240
2017-08-09T08:31:36.262Z,240
2017-08-09T08:32:35.955Z,190
2017-08-09T08:33:36.863Z,205
2017-08-09T08:34:36.545Z,185
2017-08-09T08:35:36.866Z,125
2017-08-09T08:36:36.513Z,105
2017-08-09T08:37:36.489Z,110
2017-08-09T08:38:36.487Z,125
2017-08-09T08:39:36.164Z,120
2017-08-09T08:40:36.181Z,115
2017-08-09T08:41:36.843Z,115
2017-08-09T08:42:36.148Z,115
2017-08-09T08:43:36.145Z,110
2017-08-09T08:44:36.712Z,115
2017-08-09T08:45:36.402Z,125
2017-08-09T08:46:36.073Z,140
2017-08-09T08:47:36.164Z,135
2017-08-09T08:48:36.363Z,125
2017-08-09T08:49:36.148Z,125
2017-08-09T08:50:36.416Z,140
2017-08-09T08:51:36.104Z,155
2017-08-09T08:52:36.102Z,190
2017-08-09T08:53:35.972Z,845
2017-08-09T08:54:36.273Z,1135
2017-08-09T08:55:36.253Z,865
2017-08-09T08:56:36.452Z,330
2017-08-09T08:57:36.667Z,275
2017-08-09T08:58:35.908Z,320
2017-08-09T08:59:36.227Z,780
2017-08-09T09:00:35.953Z,315
2017-08-09T09:01:36.193Z,295
2017-08-09T09:02:36.203Z,260
2017-08-09T09:03:36.241Z,240
2017-08-09T09:04:35.832Z,245
2017-08-09T09:05:36.149Z,325
2017-08-09T09:06:36.128Z,420
2017-08-09T09:07:36.152Z,320
2017-08-09T09:08:36.132Z,215
2017-08-09T09:09:36.459Z,165
2017-08-09T09:10:36.375Z,150
2017-08-09T09:11:36.250Z,130
2017-08-09T09:12:36.344Z,130
2017-08-09T09:13:35.988Z,115
2017-08-09T09:14:36.005Z,95
2017-08-09T09:15:36.403Z,80
2017-08-09T09:16:36.001Z,80
2017-08-09T09:17:36.306Z,85
2017-08-09T09:18:35.965Z,75
2017-08-09T09:19:36.037Z,70
2017-08-09T09:20:36.262Z,80
2017-08-09T09:21:36.224Z,90
2017-08-09T09:22:36.262Z,105
2017-08-09T09:23:36.226Z,95
2017-08-09T09:24:36.185Z,95
2017-08-09T09:25:35.867Z,135
2017-08-09T09:26:36.166Z,250
2017-08-09T09:27:35.826Z,560
2017-08-09T09:28:36.156Z,475
2017-08-09T09:29:35.817Z,515
2017-08-09T09:30:36.112Z,610
2017-08-09T09:31:36.103Z,730
2017-08-09T09:32:36.124Z,815
2017-08-09T09:33:35.885Z,810
2017-08-09T09:34:35.445Z,320
2017-08-09T09:35:36.039Z,640
2017-08-09T09:36:36.023Z,745
2017-08-09T09:37:35.735Z,340
2017-08-09T09:38:35.759Z,360
2017-08-09T09:39:35.987Z,610
2017-08-09T09:40:35.495Z,205
2017-08-09T09:41:35.404Z,190
2017-08-09T09:42:35.362Z,225
2017-08-09T09:43:35.955Z,285
2017-08-09T09:44:35.948Z,195
2017-08-09T09:45:35.684Z,180
2017-08-09T09:46:35.671Z,205
2017-08-09T09:47:35.894Z,215
2017-08-09T09:48:35.637Z,410
2017-08-09T09:49:35.573Z,355
2017-08-09T09:50:35.570Z,1045
2017-08-09T09:51:35.611Z,805
2017-08-09T09:52:35.530Z,670
2017-08-09T09:53:35.824Z,500
2017-08-09T09:54:35.825Z,410
2017-08-09T09:55:35.507Z,560
2017-08-09T09:56:35.217Z,625
2017-08-09T09:57:35.478Z,855
2017-08-09T09:58:35.899Z,965
2017-08-09T09:59:35.903Z,985
2017-08-09T10:00:35.443Z,940
2017-08-09T10:01:35.444Z,940
2017-08-09T10:02:35.837Z,990
2017-08-09T10:03:35.709Z,940
2017-08-09T10:04:35.772Z,895
2017-08-09T10:05:35.397Z,840
2017-08-09T10:06:35.401Z,785
2017-08-09T10:07:35.452Z,755
2017-08-09T10:08:35.744Z,800
2017-08-09T10:09:35.671Z,725
2017-08-09T10:10:35.353Z,705
2017-08-09T10:11:35.715Z,745
2017-08-09T10:12:35.673Z,775
2017-08-09T10:13:35.364Z,795
2017-08-09T10:14:35.615Z,785
2017-08-09T10:15:35.652Z,810
2017-08-09T10:16:35.302Z,825
2017-08-09T10:17:34.996Z,810
2017-08-09T10:18:35.262Z,715
2017-08-09T10:19:35.274Z,485
2017-08-09T10:20:34.945Z,425
2017-08-09T10:21:35.559Z,355
2017-08-09T10:22:35.554Z,350
2017-08-09T10:23:35.223Z,380
2017-08-09T10:24:35.225Z,260
2017-08-09T10:25:35.464Z,350
2017-08-09T10:26:35.500Z,280
2017-08-09T10:27:34.885Z,245
2017-08-09T10:28:34.868Z,240
2017-08-09T10:29:35.193Z,250
2017-08-09T10:30:35.457Z,220
2017-08-09T10:31:34.882Z,220
2017-08-09T10:32:35.446Z,330
2017-08-09T10:33:34.855Z,245
2017-08-09T10:34:35.421Z,245
2017-08-09T10:35:35.118Z,210
2017-08-09T10:36:35.120Z,200
2017-08-09T10:37:35.402Z,200
2017-08-09T10:38:34.774Z,205
2017-08-09T10:39:34.784Z,300
2017-08-09T10:40:35.088Z,195
2017-08-09T10:41:35.366Z,185
2017-08-09T10:42:34.733Z,190
2017-08-09T10:43:35.058Z,175
2017-08-09T10:44:34.695Z,175
2017-08-09T10:45:34.988Z,195
2017-08-09T10:46:35.034Z,200
2017-08-09T10:47:34.671Z,190
2017-08-09T10:48:34.963Z,205
2017-08-09T10:49:34.734Z,235
2017-08-09T10:50:34.627Z,235
2017-08-09T10:51:35.378Z,295
2017-08-09T10:52:35.245Z,305
2017-08-09T10:53:35.221Z,300
2017-08-09T10:54:34.589Z,290
2017-08-09T10:55:35.251Z,255
2017-08-09T10:56:34.884Z,225
2017-08-09T10:57:34.870Z,205
2017-08-09T10:58:34.937Z,265
2017-08-09T10:59:34.922Z,260
2017-08-09T11:00:34.851Z,255
2017-08-09T11:01:34.918Z,260
2017-08-09T11:02:34.801Z,315
2017-08-09T11:03:35.322Z,300
2017-08-09T11:04:34.481Z,335
2017-08-09T11:05:34.448Z,335
2017-08-09T11:06:35.075Z,365
2017-08-09T11:07:35.131Z,260
2017-08-09T11:08:34.745Z,250
2017-08-09T11:09:35.044Z,220
2017-08-09T11:10:34.725Z,235
2017-08-09T11:11:34.796Z,185
2017-08-09T11:12:35.007Z,175
2017-08-09T11:13:34.685Z,170
2017-08-09T11:14:34.362Z,180
2017-08-09T11:15:34.043Z,195
2017-08-09T11:16:34.991Z,215
2017-08-09T11:17:34.033Z,230
2017-08-09T11:18:34.075Z,220
2017-08-09T11:19:34.929Z,235
2017-08-09T11:20:34.623Z,265
2017-08-09T11:21:34.289Z,200
2017-08-09T11:22:34.582Z,200
2017-08-09T11:23:34.906Z,240
2017-08-09T11:24:34.560Z,240
2017-08-09T11:25:34.594Z,220
2017-08-09T11:26:34.569Z,225
2017-08-09T11:27:34.246Z,210
2017-08-09T11:28:34.239Z,265
2017-08-09T11:29:34.603Z,235
2017-08-09T11:30:33.935Z,285
2017-08-09T11:31:34.227Z,235
2017-08-09T11:32:34.177Z,225
2017-08-09T11:33:34.467Z,270
2017-08-09T11:34:34.783Z,225
2017-08-09T11:35:34.743Z,285
2017-08-09T11:36:34.732Z,255
2017-08-09T11:37:34.154Z,225
2017-08-09T11:38:34.413Z,235
2017-08-09T11:39:34.151Z,245
2017-08-09T11:40:34.700Z,240
2017-08-09T11:41:34.385Z,240
2017-08-09T11:42:34.368Z,215
2017-08-09T11:43:34.662Z,220
2017-08-09T11:44:34.044Z,285
2017-08-09T11:45:34.643Z,285
2017-08-09T11:46:34.022Z,305
2017-08-09T11:47:34.645Z,305
2017-08-09T11:48:34.326Z,300
2017-08-09T11:49:33.662Z,285
2017-08-09T11:50:34.583Z,280
2017-08-09T11:51:33.944Z,230
2017-08-09T11:52:34.278Z,275
2017-08-09T11:53:33.954Z,240
2017-08-09T11:54:34.057Z,320
2017-08-09T11:55:34.563Z,245
2017-08-09T11:56:34.303Z,320
2017-08-09T11:57:33.927Z,245
2017-08-09T11:58:34.183Z,310
2017-08-09T11:59:34.184Z,295
2017-08-09T12:00:33.861Z,305
2017-08-09T12:01:34.148Z,235
2017-08-09T12:02:34.161Z,310
2017-08-09T12:03:33.843Z,310
2017-08-09T12:04:34.147Z,315
2017-08-09T12:05:34.442Z,290
2017-08-09T12:06:34.438Z,260
2017-08-09T12:07:34.114Z,210
2017-08-09T12:08:33.486Z,200
2017-08-09T12:09:34.093Z,205
2017-08-09T12:10:34.086Z,295
2017-08-09T12:11:33.757Z,315
2017-08-09T12:12:34.159Z,300
2017-08-09T12:13:33.830Z,255
2017-08-09T12:14:33.723Z,250
2017-08-09T12:15:33.732Z,290
2017-08-09T12:16:33.697Z,225
2017-08-09T12:17:33.785Z,280
2017-08-09T12:18:34.310Z,285
2017-08-09T12:19:33.985Z,305
2017-08-09T12:20:33.657Z,305
2017-08-09T12:21:33.644Z,325
2017-08-09T12:22:33.655Z,340
2017-08-09T12:23:33.948Z,325
2017-08-09T12:24:33.941Z,275
2017-08-09T12:25:33.632Z,275
2017-08-09T12:26:33.920Z,225
2017-08-09T12:27:33.620Z,265
2017-08-09T12:28:33.602Z,215
2017-08-09T12:29:34.191Z,320
2017-08-09T12:30:33.553Z,320
2017-08-09T12:31:33.653Z,335
2017-08-09T12:32:34.143Z,315
2017-08-09T12:33:33.902Z,305
2017-08-09T12:34:33.567Z,300
2017-08-09T12:35:33.828Z,295
2017-08-09T12:36:33.831Z,290
2017-08-09T12:37:33.806Z,265
2017-08-09T12:38:33.801Z,255
2017-08-09T12:39:33.894Z,210
2017-08-09T12:40:34.080Z,140
2017-08-09T12:41:33.776Z,155
2017-08-09T12:42:33.804Z,275
2017-08-09T12:43:34.070Z,285
2017-08-09T12:44:33.735Z,270
2017-08-09T12:45:33.732Z,265
2017-08-09T12:46:34.023Z,175
2017-08-09T12:47:33.700Z,160
2017-08-09T12:48:33.713Z,170
2017-08-09T12:49:33.363Z,175
2017-08-09T12:50:33.671Z,185
2017-08-09T12:51:33.660Z,185
2017-08-09T12:52:33.706Z,200
2017-08-09T12:53:33.711Z,200
2017-08-09T12:54:33.650Z,205
2017-08-09T12:55:33.706Z,255
2017-08-09T12:56:33.844Z,280
2017-08-09T12:57:33.634Z,290
2017-08-09T12:58:33.607Z,250
2017-08-09T12:59:33.569Z,240
2017-08-09T13:00:33.877Z,225
2017-08-09T13:01:33.901Z,185
2017-08-09T13:02:33.600Z,280
2017-08-09T13:03:33.849Z,190
2017-08-09T13:04:34.170Z,185
2017-08-09T13:05:33.521Z,245
2017-08-09T13:06:33.837Z,215
2017-08-09T13:07:33.500Z,270
2017-08-09T13:08:33.819Z,265
2017-08-09T13:09:33.794Z,270
2017-08-09T13:10:33.807Z,275
2017-08-09T13:11:33.801Z,270
2017-08-09T13:12:33.786Z,255
2017-08-09T13:13:33.745Z,245
2017-08-09T13:14:33.748Z,225
2017-08-09T13:15:33.749Z,230
2017-08-09T13:16:33.720Z,235
2017-08-09T13:17:33.402Z,225
2017-08-09T13:18:33.110Z,235
2017-08-09T13:19:33.721Z,235
2017-08-09T13:20:33.709Z,175
2017-08-09T13:21:33.693Z,195
2017-08-09T13:22:33.370Z,235
2017-08-09T13:23:33.660Z,175
2017-08-09T13:24:33.672Z,180
2017-08-09T13:25:33.392Z,150
2017-08-09T13:26:33.330Z,145
2017-08-09T13:27:33.629Z,150
2017-08-09T13:28:33.310Z,205
2017-08-09T13:29:33.010Z,230
2017-08-09T13:30:33.289Z,235
2017-08-09T13:31:33.280Z,235
2017-08-09T13:32:33.573Z,225
2017-08-09T13:33:33.583Z,170
2017-08-09T13:34:33.641Z,220
2017-08-09T13:35:33.302Z,135
2017-08-09T13:36:33.226Z,135
2017-08-09T13:37:33.205Z,130
2017-08-09T13:38:33.537Z,130
2017-08-09T13:39:33.191Z,130
2017-08-09T13:40:33.634Z,125
2017-08-09T13:41:33.503Z,130
2017-08-09T13:42:33.155Z,140
2017-08-09T13:43:33.140Z,230
2017-08-09T13:44:33.155Z,235
2017-08-09T13:45:32.862Z,235
2017-08-09T13:46:33.091Z,225
2017-08-09T13:47:32.779Z,240
2017-08-09T13:48:33.528Z,205
2017-08-09T13:49:33.073Z,175
2017-08-09T13:50:32.460Z,250
2017-08-09T13:51:32.748Z,235
2017-08-09T13:52:33.065Z,240
2017-08-09T13:53:33.059Z,245
2017-08-09T13:54:33.380Z,245
2017-08-09T13:55:32.733Z,240
2017-08-09T13:56:33.064Z,240
2017-08-09T13:57:33.002Z,240
2017-08-09T13:58:33.072Z,190
2017-08-09T13:59:33.304Z,135
2017-08-09T14:00:33.290Z,130
2017-08-09T14:01:32.702Z,135
2017-08-09T14:02:32.969Z,195
2017-08-09T14:03:33.258Z,195
2017-08-09T14:04:33.257Z,140
2017-08-09T14:05:33.226Z,125
2017-08-09T14:06:33.229Z,130
2017-08-09T14:07:33.221Z,130
2017-08-09T14:08:33.191Z,135
2017-08-09T14:09:32.589Z,155
2017-08-09T14:10:33.196Z,175
2017-08-09T14:11:33.171Z,220
2017-08-09T14:12:32.830Z,155
2017-08-09T14:13:32.524Z,150